Flight Track Log - Related Links

Times and Time Zones

All times are in EDT time to prevent confusion due to time zone crossing. See the FFT403 flight status page for this flight to view local times or setup timezone preferences in your user account.

Time Position Orientation Groundspeed Altitude Reporting Facility
EDT Latitude Longitude Course Direction KTS MPH feet Rate Location/Type
Wed 07:13:39 AM 41.7500 -87.8167 251° West 183 211 2,900  Level Chicago TRACON
Wed 07:14:33 AM 41.7333 -87.8833 251° West 257 296 4,400 2,220 Climbing Chicago TRACON
Wed 07:15:19 AM 41.7281 -87.9578 265° West 263 303 6,600 3,000 Climbing Chicago Center
Wed 07:16:21 AM 41.7258 -88.0550 268° West 286 329 9,800 2,634 Climbing Chicago Center
Wed 07:17:22 AM 41.7739 -88.1408 307° West 289 333 12,000 1,525 Climbing Chicago Center
Wed 07:18:23 AM 41.7825 -88.2497 276° West 306 352 12,900 1,820 Climbing Chicago Center
Wed 07:19:24 AM 41.7772 -88.3992 267° West 336 387 15,700 2,585 Climbing Chicago Center
Wed 07:20:26 AM 41.7706 -88.5300 266° West 352 405 18,200 2,293 Climbing Chicago Center
Wed 07:21:27 AM 41.7642 -88.6658 266° West 366 421 20,400 2,164 Climbing Chicago Center
Wed 07:22:28 AM 41.7575 -88.8025 266° West 371 427 22,600 1,951 Climbing Chicago Center
Wed 07:23:30 AM 41.7519 -88.9447 267° West 382 440 24,400 1,707 Climbing Chicago Center
Wed 07:24:31 AM 41.7472 -89.0939 268° West 399 459 26,100 1,574 Climbing Chicago Center
Wed 07:25:32 AM 41.7425 -89.2469 268° West 419 482 27,600 1,659 Climbing Chicago Center
Wed 07:26:34 AM 41.7361 -89.4325 267° West 421 484 29,500 1,610 Climbing Chicago Center
Wed 07:27:35 AM 41.7311 -89.5856 268° West 429 494 30,900 1,415 Climbing Chicago Center
Wed 07:28:37 AM 41.7250 -89.7417 267° West 427 491 32,400 1,463 Climbing Chicago Center
Wed 07:29:38 AM 41.7186 -89.9000 267° West 428 493 33,900 1,317 Climbing Chicago Center
Wed 07:30:40 AM 41.7128 -90.0553 267° West 422 486 35,100 1,220 Climbing Chicago Center
Wed 07:31:41 AM 41.7061 -90.2108 267° West 421 484 36,400 1,268 Climbing Chicago Center
Wed 07:32:43 AM 41.6969 -90.3961 266° West 419 482 37,700 780 Climbing Chicago Center
Wed 07:33:44 AM 41.6900 -90.5467 267° West 409 471 38,000 146 Climbing Chicago Center
Wed 07:34:46 AM 41.6836 -90.6892 267° West 411 473 38,000  Level Chicago Center
Wed 07:35:48 AM 41.6764 -90.8417 266° West 413 475 38,000  Level Chicago Center
Wed 07:36:49 AM 41.6683 -90.9967 266° West 419 482 38,000  Level Chicago Center
Wed 07:37:51 AM 41.6592 -91.1808 266° West 418 481 38,000  Level Chicago Center
Wed 07:38:52 AM 41.6511 -91.3339 266° West 416 479 38,000  Level Chicago Center
Wed 07:39:54 AM 41.6433 -91.4886 266° West 418 481 38,000 -49 Level Chicago Center
Wed 07:40:55 AM 41.6339 -91.6408 265° West 415 478 37,900 -49 Descending Chicago Center
Wed 07:41:57 AM 41.6258 -91.7900 266° West 407 468 37,900  Level Chicago Center
Wed 07:42:59 AM 41.6172 -91.9408 266° West 410 472 37,900 49 Level Chicago Center
Wed 07:44:00 AM 41.6086 -92.0881 266° West 404 465 38,000 49 Climbing Chicago Center
Wed 07:45:02 AM 41.5972 -92.2694 265° West 408 470 38,000  Level Chicago Center
Wed 07:46:03 AM 41.5886 -92.4208 266° West 411 473 38,000  Level Chicago Center
Wed 07:47:05 AM 41.5783 -92.5708 265° West 409 471 38,000  Level Chicago Center
Wed 07:48:06 AM 41.5683 -92.7256 265° West 418 481 38,000  Level Chicago Center
Wed 07:48:24 AM 41.5656 -92.7728 266° West 415 478 38,000  Level Minneapolis Center
Wed 07:49:25 AM 41.5556 -92.9242 265° West 415 478 38,000  Level Minneapolis Center
Wed 07:50:26 AM 41.5450 -93.0728 265° West 411 473 38,000  Level Minneapolis Center
Wed 07:51:28 AM 41.5356 -93.2239 265° West 411 473 38,000  Level Minneapolis Center
Wed 07:52:29 AM 41.5219 -93.4031 264° West 410 472 38,000  Level Minneapolis Center
Wed 07:53:30 AM 41.5111 -93.5506 264° West 406 467 38,000  Level Minneapolis Center
Wed 07:54:31 AM 41.5019 -93.6986 265° West 404 465 38,000  Level Minneapolis Center
Wed 07:55:33 AM 41.4917 -93.8500 265° West 411 473 38,000  Level Minneapolis Center
Wed 07:56:34 AM 41.4789 -94.0006 264° West 412 474 38,000  Level Minneapolis Center
Wed 07:57:35 AM 41.4681 -94.1517 265° West 413 475 38,000  Level Minneapolis Center
Wed 07:58:36 AM 41.4497 -94.3322 262° West 413 475 38,000  Level Minneapolis Center
Wed 07:59:38 AM 41.4372 -94.4839 264° West 411 473 38,000 -49 Level Minneapolis Center
Wed 08:00:39 AM 41.4283 -94.6347 266° West 410 472 37,900 -49 Descending Minneapolis Center
Wed 08:01:40 AM 41.4158 -94.7853 264° West 410 472 37,900 49 Level Minneapolis Center
Wed 08:02:42 AM 41.4022 -94.9361 263° West 411 473 38,000 49 Climbing Minneapolis Center
Wed 08:03:43 AM 41.3936 -95.0547 265° West 405 466 38,000  Level Minneapolis Center
Wed 08:04:44 AM 41.3778 -95.2369 263° West 411 473 38,000  Level Minneapolis Center
Wed 08:05:46 AM 41.3636 -95.3878 263° West 411 473 38,000  Level Minneapolis Center
Wed 08:06:47 AM 41.3500 -95.5372 263° West 410 472 38,000  Level Minneapolis Center
Wed 08:07:49 AM 41.3361 -95.6894 263° West 410 472 38,000  Level Minneapolis Center
Wed 08:08:50 AM 41.3225 -95.8683 264° West 406 467 38,000  Level Minneapolis Center
Wed 08:09:51 AM 41.3067 -96.0164 262° West 405 466 38,000  Level Minneapolis Center
Wed 08:10:53 AM 41.2936 -96.1636 263° West 404 465 38,000  Level Minneapolis Center
Wed 08:11:54 AM 41.2794 -96.3108 263° West 401 461 38,000  Level Minneapolis Center
Wed 08:12:56 AM 41.2625 -96.4683 262° West 400 460 38,000 -49 Level Minneapolis Center
Wed 08:13:57 AM 41.2478 -96.6161 263° West 402 463 37,900  Descending Minneapolis Center
Wed 08:14:59 AM 41.2328 -96.7622 262° West 401 461 38,000 49 Climbing Minneapolis Center
Wed 08:16:00 AM 41.2178 -96.9097 262° West 402 463 38,000  Level Minneapolis Center
Wed 08:17:02 AM 41.2022 -97.0561 262° West 401 461 38,000 -49 Level Minneapolis Center
Wed 08:18:03 AM 41.1861 -97.2036 262° West 402 463 37,900  Descending Minneapolis Center
Wed 08:19:05 AM 41.1714 -97.3511 262° West 404 465 38,000 44 Climbing Minneapolis Center
Wed 08:20:18 AM 41.1533 -97.5189 262° West 406 467 38,000  Level Minneapolis Center
Wed 08:21:20 AM 41.1344 -97.6967 262° West 405 466 38,000 -32 Level Minneapolis Center
Wed 08:23:24 AM 41.1019 -97.9906 262° West 402 463 37,900 -32 Descending Denver Center
Wed 08:24:25 AM 41.0853 -98.1361 261° West 401 461 37,900 49 Level Minneapolis Center
Wed 08:25:27 AM 41.0683 -98.2842 261° West 403 464 38,000 48 Climbing Minneapolis Center
Wed 08:26:29 AM 41.0514 -98.4386 262° West 403 464 38,000  Level Minneapolis Center
Wed 08:27:30 AM 41.0353 -98.5844 262° West 401 461 38,000 -49 Level Minneapolis Center
Wed 08:28:32 AM 41.0197 -98.7289 262° West 398 458 37,900 -49 Descending Minneapolis Center
Wed 08:29:33 AM 40.9997 -98.9019 261° West 397 457 37,900 49 Level Minneapolis Center
Wed 08:30:35 AM 40.9833 -99.0478 262° West 399 459 38,000 46 Climbing Minneapolis Center
Wed 08:31:43 AM 40.9667 -99.1956 262° West 397 457 38,000  Level Denver Center
Wed 08:32:43 AM 40.9494 -99.3397 261° West 397 457 38,000  Level Denver Center
Wed 08:33:44 AM 40.9328 -99.4850 261° West 397 457 38,000  Level Denver Center
Wed 08:34:45 AM 40.9150 -99.6292 261° West 398 458 38,000  Level Denver Center
Wed 08:35:46 AM 40.9017 -99.7442 261° West 397 457 38,000  Level Denver Center
Wed 08:36:47 AM 40.8764 -99.9444 261° West 396 456 38,000  Level Denver Center
Wed 08:37:48 AM 40.8597 -100.0808 261° West 394 453 38,000  Level Denver Center
Wed 08:39:01 AM 40.8419 -100.2175 260° West 394 453 38,000  Level Denver Center
Wed 08:40:14 AM 40.8194 -100.4003 261° West 396 456 38,000  Level Denver Center
Wed 08:41:15 AM 40.7989 -100.5606 260° West 396 456 38,000  Level Denver Center
Wed 08:42:16 AM 40.7828 -100.6919 261° West 400 460 38,000  Level Denver Center
Wed 08:43:17 AM 40.7511 -100.8697 257° West 405 466 38,000  Level Denver Center
Wed 08:44:18 AM 40.7286 -101.0097 258° West 405 466 38,000  Level Denver Center
Wed 08:45:19 AM 40.7008 -101.1744 258° West 411 473 38,000  Level Denver Center
Wed 08:46:21 AM 40.6756 -101.3147 257° West 411 473 38,000  Level Denver Center
Wed 08:47:34 AM 40.6511 -101.4556 257° West 412 474 38,000  Level Denver Center
Wed 08:48:35 AM 40.6186 -101.6436 257° West 412 474 38,000  Level Denver Center
Wed 08:49:36 AM 40.5964 -101.7597 256° West 413 475 38,000  Level Denver Center
Wed 08:50:37 AM 40.5628 -101.9472 257° West 413 475 38,000 -49 Level Denver Center
Wed 08:51:38 AM 40.5364 -102.0864 256° West 411 473 37,900 -49 Descending Denver Center
Wed 08:52:39 AM 40.5106 -102.2250 256° West 408 470 37,900  Level Denver Center
Wed 08:53:40 AM 40.4803 -102.3881 256° West 411 473 37,900 -1,033 Level Denver Center
Wed 08:54:41 AM 40.4550 -102.5306 257° West 416 479 35,800 -2,705 Descending Denver Center
Wed 08:55:42 AM 40.4239 -102.6925 256° West 424 488 32,400 -3,024 Descending Denver Center
Wed 08:56:44 AM 40.3953 -102.8450 256° West 427 491 29,600 -2,439 Descending Denver Center
Wed 08:57:45 AM 40.3672 -102.9922 256° West 414 476 27,400 -2,115 Descending Denver Center
Wed 08:58:46 AM 40.3403 -103.1322 256° West 396 456 25,300 -2,016 Descending Denver Center
Wed 08:59:47 AM 40.3150 -103.2658 256° West 379 436 23,300 -1,967 Descending Denver Center
Wed 09:00:48 AM 40.2900 -103.3981 256° West 373 429 21,300 -1,574 Descending Denver Center
Wed 09:01:49 AM 40.2644 -103.5244 255° West 358 412 20,100 -1,180 Descending Denver Center
Wed 09:02:50 AM 40.2394 -103.6528 256° West 361 415 18,900 -1,180 Descending Denver Center
Wed 09:03:51 AM 40.2153 -103.7861 257° West 363 418 17,700 -1,230 Descending Denver Center
Wed 09:04:52 AM 40.1894 -103.9019 254° West 330 380 16,400 -1,279 Descending Denver Center
Wed 09:05:53 AM 40.1719 -103.9967 256° West 319 367 15,100 -1,525 Descending Denver Center
Wed 09:06:54 AM 40.1294 -104.1169 245° Southwest 310 357 13,300 -1,623 Descending Denver Center
Wed 09:07:55 AM 40.0500 -104.1542 200° South 306 352 11,800 -1,254 Descending Denver Center
Wed 09:09:08 AM 39.9661 -104.2128 208° Southwest 283 326 10,500 -940 Descending Denver Center
Wed 09:10:09 AM 39.9389 -104.3011 248° West 261 300 9,700 -984 Descending Denver Center
Wed 09:11:10 AM 39.9128 -104.3853 248° West 253 291 8,500 -1,158 Descending Denver Center
Wed 09:12:03 AM 39.8833 -104.4667 245° Southwest 244 281 7,500 -1,062 Descending Denver TRACON
Wed 09:13:03 AM 39.8833 -104.5333 270° West 209 241 6,500 -895 Descending Denver TRACON
Wed 09:13:57 AM 39.8833 -104.5833 270° West 159 183 5,800 -500 Descending Denver TRACON
Wed 09:15:15 AM 39.8775 -104.6483 263° West 123 142 5,400 -308 Descending Denver Center
Wed 09:17:00 AM 39.8500 -104.6667 190° South  Level FlightAware Approximate
Wed 09:24:00 AM 39.8617 -104.6732 190° South  Level Estimated
Wed 09:25:00 AM 39.8617 -104.6732 190° South  Level Estimated

Login

Don't have an account? Register now (free) for customized features, flight alerts, and more!